Time;durP1;ratioP1;P1;durP2;ratioP2;P2;SDS_P1;SDS_P2;PMS_P1;PMS_P2;Temp;Humidity;BMP_temperature;BMP_pressure;BME280_temperature;BME280_humidity;BME280_pressure;Samples;Min_cycle;Max_cycle;Signal;HPM_P1;HPM_P2
2021/09/07 00:01:05;;;;;;;61.00;30.52;;;;;;;-149.78;100.00;50162.44;5085962;28;20457;-67
2021/09/07 00:03:30;;;;;;;62.22;31.02;;;;;;;-149.78;100.00;50162.44;5090289;28;20047;-67
2021/09/07 00:05:56;;;;;;;64.35;31.50;;;;;;;-149.78;100.00;50150.72;5088617;28;20113;-67
2021/09/07 00:08:21;;;;;;;65.68;32.38;;;;;;;-149.78;100.00;50150.72;5089180;28;20111;-67
2021/09/07 00:10:47;;;;;;;65.93;31.00;;;;;;;-149.78;100.00;50123.34;5090559;28;20380;-66
2021/09/07 00:13:13;;;;;;;67.72;31.92;;;;;;;-149.78;100.00;50154.63;5086220;28;20089;-67
2021/09/07 00:15:38;;;;;;;66.68;32.17;;;;;;;-149.78;100.00;50117.47;5083150;28;20471;-67
2021/09/07 00:18:04;;;;;;;72.07;32.78;;;;;;;-149.78;100.00;50150.72;5082529;28;20448;-66
2021/09/07 00:20:30;;;;;;;74.68;33.70;;;;;;;-149.78;100.00;50150.72;5095135;28;20052;-67
2021/09/07 00:22:56;;;;;;;67.10;31.33;;;;;;;-149.78;100.00;50138.97;5094051;28;20409;-67
2021/09/07 00:25:22;;;;;;;71.70;32.13;;;;;;;-149.78;100.00;50140.94;5070391;28;20078;-67
2021/09/07 00:27:49;;;;;;;66.28;31.30;;;;;;;-149.78;100.00;50189.81;5079357;28;20483;-66
2021/09/07 00:30:14;;;;;;;63.85;30.73;;;;;;;-149.78;100.00;50162.44;5084207;28;20101;-67
2021/09/07 00:32:40;;;;;;;73.22;32.72;;;;;;;-149.78;100.00;50154.63;5081979;28;20480;-67
2021/09/07 00:35:08;;;;;;;72.78;33.28;;;;;;;-149.78;100.00;50154.63;5087561;28;20037;-67
2021/09/07 00:37:34;;;;;;;74.70;34.92;;;;;;;-149.78;100.00;50150.72;5076513;28;20024;-67
2021/09/07 00:39:59;;;;;;;67.65;32.80;;;;;;;-149.78;100.00;50158.53;5078098;28;20097;-67
2021/09/07 00:42:25;;;;;;;74.20;32.67;;;;;;;-149.78;100.00;50131.16;5059423;28;20041;-65
2021/09/07 00:44:51;;;;;;;72.78;33.17;;;;;;;-149.78;100.00;50154.63;5078031;28;20544;-67
2021/09/07 00:47:17;;;;;;;72.65;34.15;;;;;;;-149.78;100.00;50154.63;5076148;28;20036;-67
2021/09/07 00:49:43;;;;;;;71.22;32.13;;;;;;;-149.78;100.00;50146.81;5082553;28;20082;-67
2021/09/07 00:52:09;;;;;;;72.97;32.78;;;;;;;-149.78;100.00;50127.25;5076091;28;20036;-66
2021/09/07 00:54:37;;;;;;;71.50;32.92;;;;;;;-149.78;100.00;50144.84;5091291;28;20111;-67
2021/09/07 00:57:07;;;;;;;73.75;32.90;;;;;;;-149.78;100.00;50189.81;5084037;28;20430;-67
2021/09/07 00:59:33;;;;;;;70.57;32.90;;;;;;;-149.78;100.00;50158.53;5079823;28;20024;-67
2021/09/07 01:01:59;;;;;;;74.93;33.88;;;;;;;-149.78;100.00;50150.72;5090751;28;20515;-67
2021/09/07 01:04:27;;;;;;;73.22;33.10;;;;;;;-149.78;100.00;50166.34;5093463;28;20070;-66
2021/09/07 01:06:53;;;;;;;80.30;34.03;;;;;;;-149.78;100.00;50174.19;5094051;28;20439;-67
2021/09/07 01:09:19;;;;;;;81.55;36.40;;;;;;;-149.78;100.00;50172.22;5084543;28;20070;-67
2021/09/07 01:11:45;;;;;;;74.65;34.40;;;;;;;-149.78;100.00;50201.56;5086435;28;20052;-67
2021/09/07 01:14:11;;;;;;;74.85;36.08;;;;;;;-149.78;100.00;50189.81;5089615;28;20467;-66
2021/09/07 01:16:36;;;;;;;75.20;34.08;;;;;;;-149.78;100.00;50174.19;5080856;28;20116;-67
2021/09/07 01:19:03;;;;;;;84.63;36.00;;;;;;;-149.78;100.00;50137.03;5090211;28;20033;-67
2021/09/07 01:21:28;;;;;;;76.63;34.97;;;;;;;-149.78;100.00;50158.53;5085699;28;20030;-67
2021/09/07 01:23:54;;;;;;;84.97;35.85;;;;;;;-149.78;100.00;50180.03;5089192;28;20028;-67
2021/09/07 01:26:22;;;;;;;73.47;33.83;;;;;;;-149.78;100.00;50168.31;5084438;28;20057;-66
2021/09/07 01:28:48;;;;;;;74.60;35.50;;;;;;;-149.78;100.00;50142.88;5078335;28;20043;-67
2021/09/07 01:31:14;;;;;;;77.38;34.55;;;;;;;-149.78;100.00;50170.25;5064108;28;20036;-67
2021/09/07 01:33:40;;;;;;;83.82;36.97;;;;;;;-149.78;100.00;50148.75;5087117;28;20082;-66
2021/09/07 01:36:06;;;;;;;81.65;36.70;;;;;;;-149.78;100.00;50193.72;5075558;28;20036;-67
2021/09/07 01:38:33;;;;;;;85.55;36.88;;;;;;;-149.78;100.00;50150.72;5080732;28;20020;-67
2021/09/07 01:40:59;;;;;;;95.68;38.85;;;;;;;-149.78;100.00;50158.53;5087327;28;20119;-66
2021/09/07 01:43:25;;;;;;;86.45;37.42;;;;;;;-149.78;100.00;50158.53;5087115;28;20383;-66
2021/09/07 01:45:52;;;;;;;86.80;37.78;;;;;;;-149.78;100.00;50174.19;5089406;28;20027;-67
2021/09/07 01:48:19;;;;;;;89.50;38.17;;;;;;;-149.78;100.00;50201.56;5089799;28;20175;-67
2021/09/07 01:50:45;;;;;;;89.82;38.17;;;;;;;-149.78;100.00;50138.97;5083116;28;20085;-67
2021/09/07 01:53:11;;;;;;;90.15;39.00;;;;;;;-149.78;100.00;50185.91;5087858;28;20483;-66
2021/09/07 01:55:38;;;;;;;89.55;38.80;;;;;;;-149.78;100.00;50199.59;5088095;28;20116;-66
2021/09/07 01:58:04;;;;;;;96.30;40.17;;;;;;;-149.78;100.00;50187.88;5075499;28;20036;-67
2021/09/07 02:00:31;;;;;;;90.15;37.47;;;;;;;-149.78;100.00;50197.66;5082367;28;20036;-66
2021/09/07 02:02:56;;;;;;;85.53;37.72;;;;;;;-149.78;100.00;50162.44;5081062;28;20036;-66
2021/09/07 02:05:22;;;;;;;95.20;38.97;;;;;;;-149.78;100.00;50158.53;5082663;28;20396;-67
2021/09/07 02:07:48;;;;;;;98.15;41.22;;;;;;;-149.78;100.00;50182.00;5079076;28;20126;-66
2021/09/07 02:10:13;;;;;;;98.57;40.03;;;;;;;-149.78;100.00;50182.00;5080014;28;20036;-66
2021/09/07 02:12:40;;;;;;;94.15;41.63;;;;;;;-149.78;100.00;50135.06;5077599;28;20029;-66
2021/09/07 02:15:06;;;;;;;95.55;40.85;;;;;;;-149.78;100.00;50178.09;5085465;28;20058;-66
2021/09/07 02:17:33;;;;;;;104.60;44.58;;;;;;;-149.78;100.00;50219.16;5089742;28;20113;-67
2021/09/07 02:19:58;;;;;;;98.32;40.03;;;;;;;-149.78;100.00;50201.56;5069986;28;20028;-67
2021/09/07 02:22:25;;;;;;;91.85;41.30;;;;;;;-149.78;100.00;50142.88;5082057;28;20131;-67
2021/09/07 02:24:52;;;;;;;90.70;38.72;;;;;;;-149.78;100.00;50197.66;5084034;28;20024;-66
2021/09/07 02:27:18;;;;;;;85.43;38.33;;;;;;;-149.78;100.00;50199.59;5085599;28;20102;-67
2021/09/07 02:29:44;;;;;;;86.32;36.40;;;;;;;-149.78;100.00;50189.81;5090149;28;20440;-66
2021/09/07 02:32:11;;;;;;;89.20;39.47;;;;;;;-149.78;100.00;50158.53;5078104;28;20068;-66
2021/09/07 02:34:36;;;;;;;88.50;38.33;;;;;;;-149.78;100.00;50189.81;5073280;28;20036;-66
2021/09/07 02:37:03;;;;;;;84.03;37.47;;;;;;;-149.78;100.00;50166.34;5087183;28;20043;-66
2021/09/07 02:39:28;;;;;;;87.53;38.17;;;;;;;-149.78;100.00;50162.44;5085667;28;20082;-66
2021/09/07 02:41:54;;;;;;;93.40;38.78;;;;;;;-149.78;100.00;50174.19;5074422;28;20403;-66
2021/09/07 02:44:20;;;;;;;91.72;38.03;;;;;;;-149.78;100.00;50170.25;5054770;28;20127;-66
2021/09/07 02:46:47;;;;;;;95.72;39.58;;;;;;;-149.78;100.00;50182.00;5073672;28;21528;-66
2021/09/07 02:49:13;;;;;;;96.15;40.35;;;;;;;-149.78;100.00;50182.00;5085373;28;20482;-66
2021/09/07 02:51:39;;;;;;;100.88;40.80;;;;;;;-149.78;100.00;50209.38;5069278;28;20033;-67
2021/09/07 02:54:05;;;;;;;97.82;41.72;;;;;;;-149.78;100.00;50213.28;5074233;28;20437;-67
2021/09/07 02:56:31;;;;;;;107.07;43.28;;;;;;;-149.78;100.00;50170.25;5077556;28;20086;-66
2021/09/07 02:58:57;;;;;;;112.28;44.35;;;;;;;-149.78;100.00;50174.19;5074995;28;20036;-65
2021/09/07 03:01:23;;;;;;;109.03;43.63;;;;;;;-149.78;100.00;50170.25;5040812;28;20493;-66
2021/09/07 03:03:49;;;;;;;116.75;45.75;;;;;;;-149.78;100.00;50213.28;5072718;28;20123;-66
2021/09/07 03:06:16;;;;;;;117.75;46.58;;;;;;;-149.78;100.00;50182.00;5083495;28;20059;-67
2021/09/07 03:08:42;;;;;;;121.28;48.53;;;;;;;-149.78;100.00;50197.66;5082389;28;20079;-66
2021/09/07 03:11:08;;;;;;;132.18;50.17;;;;;;;-149.78;100.00;50209.38;5085357;28;20486;-66
2021/09/07 03:13:33;;;;;;;123.40;49.00;;;;;;;-149.78;100.00;50182.00;5089144;28;20127;-67
2021/09/07 03:16:02;;;;;;;136.05;52.22;;;;;;;-149.78;100.00;50197.66;5079051;28;20075;-66
2021/09/07 03:18:27;;;;;;;123.97;50.15;;;;;;;-149.78;100.00;50178.09;5078957;28;20381;-67
2021/09/07 03:20:56;;;;;;;126.10;50.72;;;;;;;-149.78;100.00;50174.19;5082341;28;20028;-66
2021/09/07 03:23:21;;;;;;;138.52;53.38;;;;;;;-149.78;100.00;50162.44;5089083;28;20040;-67
2021/09/07 03:25:47;;;;;;;143.45;56.67;;;;;;;-149.78;100.00;50174.19;5079705;28;20036;-66
2021/09/07 03:28:14;;;;;;;137.85;53.53;;;;;;;-149.78;100.00;50174.19;5085553;28;20417;-67
2021/09/07 03:30:40;;;;;;;138.20;54.65;;;;;;;-149.78;100.00;50199.59;5079365;28;20037;-66
2021/09/07 03:33:06;;;;;;;138.50;53.38;;;;;;;-149.78;100.00;50182.00;5071095;28;20029;-67
2021/09/07 03:35:32;;;;;;;133.52;52.88;;;;;;;-149.78;100.00;50150.72;5086356;28;20400;-67
2021/09/07 03:37:58;;;;;;;141.50;54.55;;;;;;;-149.78;100.00;50178.09;5085780;28;20039;-67
2021/09/07 03:40:23;;;;;;;140.70;52.92;;;;;;;-149.78;100.00;50174.19;5073100;28;20033;-66
2021/09/07 03:42:49;;;;;;;142.38;55.65;;;;;;;-149.78;100.00;50182.00;5070825;28;20035;-66
2021/09/07 03:45:15;;;;;;;137.65;52.33;;;;;;;-149.78;100.00;50189.81;5079370;28;20117;-66
2021/09/07 03:47:43;;;;;;;141.95;53.70;;;;;;;-149.78;100.00;50183.97;5089703;28;20173;-66
2021/09/07 03:50:11;;;;;;;133.55;53.70;;;;;;;-149.78;100.00;50178.09;5083293;28;20036;-67
2021/09/07 03:52:36;;;;;;;141.55;54.80;;;;;;;-149.78;100.00;50182.00;5093404;28;20032;-67
2021/09/07 03:55:03;;;;;;;142.50;54.47;;;;;;;-149.78;100.00;50170.25;5077676;28;20123;-67
2021/09/07 03:57:28;;;;;;;137.82;54.00;;;;;;;-149.78;100.00;50182.00;5083652;28;20037;-67
2021/09/07 03:59:56;;;;;;;134.25;54.80;;;;;;;-149.78;100.00;50197.66;5091695;28;20085;-67
2021/09/07 04:02:26;;;;;;;142.95;55.78;;;;;;;-149.78;100.00;50201.56;5094690;28;20150;-67
2021/09/07 04:04:54;;;;;;;145.50;55.03;;;;;;;-149.78;100.00;50189.81;5080880;28;20043;-66
2021/09/07 04:07:22;;;;;;;145.48;55.40;;;;;;;-149.78;100.00;50207.44;5092944;28;20058;-67
2021/09/07 04:09:48;;;;;;;145.93;56.80;;;;;;;-149.78;100.00;50236.75;5095062;28;20124;-67
2021/09/07 04:12:13;;;;;;;144.90;55.42;;;;;;;-149.78;100.00;50215.25;5093070;28;20499;-67
2021/09/07 04:14:39;;;;;;;134.32;53.67;;;;;;;-149.78;100.00;50217.19;5077290;28;20047;-67
2021/09/07 04:17:06;;;;;;;127.75;53.88;;;;;;;-149.78;100.00;50228.94;5089676;28;20037;-67
2021/09/07 04:19:32;;;;;;;133.38;54.38;;;;;;;-149.78;100.00;50223.06;5088030;28;20036;-67
2021/09/07 04:21:59;;;;;;;129.60;50.80;;;;;;;-149.78;100.00;50189.81;5067521;28;20033;-67
2021/09/07 04:24:24;;;;;;;143.15;54.30;;;;;;;-149.78;100.00;50197.66;5079134;28;20033;-67
2021/09/07 04:26:50;;;;;;;127.97;50.88;;;;;;;-149.78;100.00;50197.66;5082331;28;20039;-67
2021/09/07 04:29:16;;;;;;;132.02;49.70;;;;;;;-149.78;100.00;50201.56;5091398;28;20368;-67
2021/09/07 04:31:42;;;;;;;126.10;50.20;;;;;;;-149.78;100.00;50228.94;5091837;28;20211;-66
2021/09/07 04:34:08;;;;;;;124.90;50.63;;;;;;;-149.78;100.00;50209.38;5088937;28;20491;-66
2021/09/07 04:36:34;;;;;;;134.05;50.30;;;;;;;-149.78;100.00;50217.19;5082089;28;20040;-67
2021/09/07 04:38:59;;;;;;;132.45;52.42;;;;;;;-149.78;100.00;50189.81;5082672;28;20044;-67
2021/09/07 04:41:25;;;;;;;124.88;48.83;;;;;;;-149.78;100.00;50201.56;5082363;28;20036;-66
2021/09/07 04:43:51;;;;;;;123.68;47.70;;;;;;;-149.78;100.00;50225.03;5091914;28;20036;-67
2021/09/07 04:46:17;;;;;;;123.97;47.53;;;;;;;-149.78;100.00;50205.47;5084676;28;20032;-67
2021/09/07 04:48:43;;;;;;;126.40;48.17;;;;;;;-149.78;100.00;50201.56;5081793;28;20036;-65
2021/09/07 04:51:09;;;;;;;121.35;48.45;;;;;;;-149.78;100.00;50221.13;5088618;28;20037;-67
2021/09/07 04:53:35;;;;;;;131.52;50.20;;;;;;;-149.78;100.00;50248.50;5087532;28;20067;-67
2021/09/07 04:56:01;;;;;;;134.68;52.72;;;;;;;-149.78;100.00;50207.44;5091262;28;20108;-67
2021/09/07 04:58:28;;;;;;;141.13;49.85;;;;;;;-149.78;100.00;50217.19;5093802;28;20028;-67
2021/09/07 05:00:53;;;;;;;132.50;51.08;;;;;;;-149.78;100.00;50197.66;5079032;28;20437;-67
2021/09/07 05:03:19;;;;;;;136.15;50.28;;;;;;;-149.78;100.00;50189.81;5083119;28;20078;-66
2021/09/07 05:05:44;;;;;;;140.80;51.17;;;;;;;-149.78;100.00;50189.81;5081552;28;20037;-67
2021/09/07 05:08:10;;;;;;;129.02;47.70;;;;;;;-149.78;100.00;50197.66;5073203;28;20040;-67
2021/09/07 05:10:35;;;;;;;133.43;47.85;;;;;;;-149.78;100.00;50189.81;5087683;28;20029;-67
2021/09/07 05:13:02;;;;;;;115.60;43.28;;;;;;;-149.78;100.00;50232.84;5074871;28;20043;-67
2021/09/07 05:15:27;;;;;;;116.38;42.05;;;;;;;-149.78;100.00;50213.28;5093666;28;20118;-67
2021/09/07 05:17:53;;;;;;;98.65;38.83;;;;;;;-149.78;100.00;50215.25;5091157;28;20040;-66
2021/09/07 05:20:19;;;;;;;99.20;39.17;;;;;;;-149.78;100.00;50203.50;5093314;28;20032;-66
2021/09/07 05:22:45;;;;;;;92.20;36.97;;;;;;;-149.78;100.00;50197.66;5093814;28;20063;-66
2021/09/07 05:25:11;;;;;;;95.40;35.53;;;;;;;-149.78;100.00;50213.28;5081033;28;20036;-67
2021/09/07 05:27:37;;;;;;;90.55;35.67;;;;;;;-149.78;100.00;50213.28;5053415;28;20032;-67
2021/09/07 05:30:04;;;;;;;97.05;35.40;;;;;;;-149.78;100.00;50217.19;5084941;28;20493;-67
2021/09/07 05:32:30;;;;;;;89.53;33.70;;;;;;;-149.78;100.00;50189.81;5088044;28;20028;-67
2021/09/07 05:34:56;;;;;;;86.75;33.75;;;;;;;-149.78;100.00;50209.38;5082624;28;20353;-67
2021/09/07 05:37:22;;;;;;;83.80;31.40;;;;;;;-149.78;100.00;50197.66;5091622;28;20827;-67
2021/09/07 05:39:47;;;;;;;93.40;32.80;;;;;;;-149.78;100.00;50228.94;5066597;28;20032;-67
2021/09/07 05:42:13;;;;;;;93.07;34.70;;;;;;;-149.78;100.00;50197.66;5090428;28;20395;-67
2021/09/07 05:44:38;;;;;;;79.75;29.90;;;;;;;-149.78;100.00;50205.47;5084127;28;20024;-66
2021/09/07 05:47:05;;;;;;;79.35;30.08;;;;;;;-149.78;100.00;50185.91;5091681;28;20032;-67
2021/09/07 05:49:31;;;;;;;81.45;30.75;;;;;;;-149.78;100.00;50213.28;5090729;28;20476;-66
2021/09/07 05:51:59;;;;;;;64.15;26.73;;;;;;;-149.78;100.00;50189.81;5092075;28;20033;-66
2021/09/07 05:54:24;;;;;;;72.28;28.80;;;;;;;-149.78;100.00;50256.31;5089738;28;20558;-67
2021/09/07 05:56:50;;;;;;;72.13;27.70;;;;;;;-149.78;100.00;50205.47;5092565;28;20526;-66
2021/09/07 05:59:17;;;;;;;71.22;27.90;;;;;;;-149.78;100.00;50238.72;5091821;28;20044;-67
2021/09/07 06:01:45;;;;;;;71.72;27.77;;;;;;;-149.78;100.00;50213.28;5088690;28;20047;-66
2021/09/07 06:04:11;;;;;;;67.78;27.50;;;;;;;-149.78;100.00;50197.66;5091366;28;20077;-67
2021/09/07 06:06:37;;;;;;;69.68;27.98;;;;;;;-149.78;100.00;50240.66;5087535;28;20056;-67
2021/09/07 06:09:03;;;;;;;64.47;26.83;;;;;;;-149.78;100.00;50217.19;5091939;28;20056;-67
2021/09/07 06:11:29;;;;;;;72.05;25.17;;;;;;;-149.78;100.00;50217.19;5069175;28;20036;-66
2021/09/07 06:13:55;;;;;;;64.88;25.00;;;;;;;-149.78;100.00;50240.66;5092657;28;20132;-67
2021/09/07 06:16:22;;;;;;;58.97;23.23;;;;;;;-149.78;100.00;50197.66;5086348;28;20066;-66
2021/09/07 06:18:47;;;;;;;57.33;25.70;;;;;;;-149.78;100.00;50205.47;5067440;28;20414;-67
2021/09/07 06:21:13;;;;;;;64.45;25.70;;;;;;;-149.78;100.00;50205.47;5087310;28;20036;-66
2021/09/07 06:23:39;;;;;;;70.65;27.48;;;;;;;-149.78;100.00;50230.88;5084125;28;20037;-65
2021/09/07 06:26:05;;;;;;;69.00;27.52;;;;;;;-149.78;100.00;50197.66;5089300;28;20039;-68
2021/09/07 06:28:31;;;;;;;83.13;31.23;;;;;;;-149.78;100.00;50201.56;5091020;28;20038;-69
2021/09/07 06:30:57;;;;;;;72.57;27.83;;;;;;;-149.78;100.00;50185.91;5085385;28;20036;-66
2021/09/07 06:33:23;;;;;;;77.68;29.40;;;;;;;-149.78;100.00;50209.38;5089096;28;20470;-66
2021/09/07 06:35:49;;;;;;;79.90;30.60;;;;;;;-149.78;100.00;50180.03;5088312;28;20050;-66
2021/09/07 06:38:15;;;;;;;85.80;32.92;;;;;;;-149.78;100.00;50164.41;5090275;28;20032;-66
2021/09/07 06:40:41;;;;;;;83.13;31.08;;;;;;;-149.78;100.00;50168.31;5083162;28;20024;-66
2021/09/07 06:43:07;;;;;;;70.55;31.13;;;;;;;-149.78;100.00;50189.81;5089453;28;20043;-66
2021/09/07 06:45:33;;;;;;;92.05;35.75;;;;;;;-149.78;100.00;50197.66;5091970;28;20028;-66
2021/09/07 06:47:59;;;;;;;84.38;33.58;;;;;;;-149.78;100.00;50174.19;5089123;28;20053;-67
2021/09/07 06:50:25;;;;;;;79.30;32.88;;;;;;;-149.78;100.00;50162.44;5089903;28;20043;-66
2021/09/07 06:52:50;;;;;;;70.90;29.98;;;;;;;-149.78;100.00;50123.34;5090522;28;20046;-68
2021/09/07 06:55:16;;;;;;;70.25;30.73;;;;;;;-149.78;100.00;50097.91;5086137;28;20028;-67
2021/09/07 06:57:41;;;;;;;72.63;31.83;;;;;;;-149.78;100.00;50090.09;5079494;28;20446;-68
2021/09/07 07:00:08;;;;;;;60.83;27.55;;;;;;;-149.78;100.00;50041.19;5071926;28;20487;-67
2021/09/07 07:02:40;;;;;;;57.58;25.10;;;;;;;-149.78;100.00;50006.00;5089713;28;20049;-68
2021/09/07 07:05:07;;;;;;;58.85;27.05;;;;;;;-149.78;100.00;50004.03;5072294;28;20042;-67
2021/09/07 07:07:33;;;;;;;56.05;27.08;;;;;;;-149.78;100.00;50000.13;5089602;28;20016;-67
2021/09/07 07:10:00;;;;;;;52.22;24.30;;;;;;;-149.78;100.00;49998.19;5090370;28;20027;-67
2021/09/07 07:12:26;;;;;;;49.20;24.83;;;;;;;-149.78;100.00;49968.84;5090204;28;20123;-68
2021/09/07 07:14:51;;;;;;;41.45;21.27;;;;;;;-149.78;100.00;49970.78;5091903;28;20119;-69
2021/09/07 07:17:17;;;;;;;44.20;22.10;;;;;;;-149.78;100.00;49908.22;5090421;28;20064;-67
2021/09/07 07:19:42;;;;;;;43.45;22.45;;;;;;;-149.78;96.25;49896.50;5085092;28;20123;-67
2021/09/07 07:22:08;;;;;;;45.92;23.48;;;;;;;-149.78;75.90;49908.22;5073812;28;20051;-67
2021/09/07 07:24:34;;;;;;;41.63;22.75;;;;;;;-149.78;69.81;49869.13;5090104;28;20035;-67
2021/09/07 07:27:01;;;;;;;36.92;20.50;;;;;;;-149.78;66.16;49874.97;5087169;28;20075;-67
2021/09/07 07:29:28;;;;;;;41.35;20.17;;;;;;;-149.78;63.62;49894.53;5084607;28;20546;-63
2021/09/07 07:31:53;;;;;;;38.45;20.10;;;;;;;-149.78;61.70;49841.72;5089502;28;20391;-63
2021/09/07 07:34:19;;;;;;;38.95;20.95;;;;;;;-149.78;61.02;49861.28;5089355;28;20044;-63
2021/09/07 07:36:45;;;;;;;40.80;21.27;;;;;;;-149.78;59.35;49874.97;5079062;28;20102;-63
2021/09/07 07:39:10;;;;;;;37.67;20.67;;;;;;;-149.78;59.29;49849.56;5087555;28;20036;-63
2021/09/07 07:41:36;;;;;;;39.38;22.25;;;;;;;-149.78;57.54;49822.19;5072558;28;20040;-61
2021/09/07 07:44:02;;;;;;;37.70;19.08;;;;;;;-149.78;57.79;49857.38;5071871;28;20431;-61
2021/09/07 07:46:27;;;;;;;36.00;20.13;;;;;;;-149.78;57.40;49837.81;5087393;28;20032;-61
2021/09/07 07:48:54;;;;;;;43.40;21.42;;;;;;;-149.78;55.17;49841.72;5085859;28;20139;-61
2021/09/07 07:51:20;;;;;;;33.30;19.63;;;;;;;-149.78;54.57;49783.06;5089012;28;20037;-60
2021/09/07 07:53:46;;;;;;;40.42;21.88;;;;;;;-149.78;53.42;49828.03;5091401;28;20028;-60
2021/09/07 07:56:12;;;;;;;37.05;20.52;;;;;;;-149.78;53.03;49802.63;5087738;28;20078;-61
2021/09/07 07:58:37;;;;;;;39.78;20.95;;;;;;;-149.78;52.03;49779.16;5084532;28;20444;-61
2021/09/07 08:01:03;;;;;;;36.67;20.52;;;;;;;-149.78;52.17;49830.00;5086984;28;20036;-63
2021/09/07 08:03:29;;;;;;;32.20;20.95;;;;;;;-149.78;52.47;49790.91;5089973;28;20364;-63
2021/09/07 08:05:55;;;;;;;33.88;19.70;;;;;;;-149.78;50.61;49751.78;5077267;28;20063;-63
2021/09/07 08:08:21;;;;;;;36.88;20.23;;;;;;;-149.78;50.00;49779.16;5080175;28;20068;-63
2021/09/07 08:10:47;;;;;;;34.65;18.67;;;;;;;-149.78;50.13;49779.16;5077154;28;20024;-63
2021/09/07 08:13:12;;;;;;;33.95;18.33;;;;;;;-149.78;49.94;49763.53;5088465;28;20509;-61
2021/09/07 08:15:38;;;;;;;33.83;19.25;;;;;;;-149.78;48.83;49720.50;5091027;28;20045;-61
2021/09/07 08:18:04;;;;;;;33.15;20.05;;;;;;;-149.78;49.00;49759.59;5089997;28;20635;-61
2021/09/07 08:20:31;;;;;;;31.42;19.63;;;;;;;-149.78;48.49;49790.91;5089148;28;20060;-61
2021/09/07 08:22:59;;;;;;;29.48;19.00;;;;;;;-149.78;48.47;49747.88;5085095;28;20033;-61
2021/09/07 08:25:25;;;;;;;32.03;20.23;;;;;;;-149.78;47.27;49728.31;5058638;28;20119;-60
2021/09/07 08:27:50;;;;;;;35.50;20.63;;;;;;;-149.78;46.83;49732.22;5062708;28;20430;-63
2021/09/07 08:30:16;;;;;;;34.78;20.60;;;;;;;-149.78;45.88;49718.53;5086110;28;20067;-61
2021/09/07 08:32:43;;;;;;;30.70;18.67;;;;;;;-149.78;46.03;49712.69;5074954;28;20466;-60
2021/09/07 08:35:10;;;;;;;37.88;21.58;;;;;;;-149.78;45.00;49732.22;5077366;28;20039;-60
2021/09/07 08:37:36;;;;;;;35.72;21.00;;;;;;;-149.78;45.54;49718.53;5077251;28;20105;-61
2021/09/07 08:40:04;;;;;;;31.73;19.73;;;;;;;-149.78;45.48;49714.63;5077984;28;20036;-61
2021/09/07 08:42:29;;;;;;;34.38;20.23;;;;;;;-149.78;45.03;49732.22;5075012;28;20055;-60
2021/09/07 08:44:56;;;;;;;34.92;19.95;;;;;;;-149.78;45.01;49712.69;5078258;28;20060;-60
2021/09/07 08:47:22;;;;;;;33.58;20.05;;;;;;;-149.78;44.99;49708.75;5080862;28;20032;-61
2021/09/07 08:49:50;;;;;;;38.80;22.98;;;;;;;-149.78;44.24;49685.31;5082352;28;20120;-61
2021/09/07 08:52:18;;;;;;;40.33;22.52;;;;;;;-149.78;44.36;49708.75;5088541;28;20064;-60
2021/09/07 08:54:45;;;;;;;36.20;22.50;;;;;;;-149.78;44.42;49702.91;5087555;28;20537;-61
2021/09/07 08:57:12;;;;;;;34.38;19.83;;;;;;;-149.78;42.93;49685.31;5078393;28;20036;-62
2021/09/07 08:59:38;;;;;;;42.17;23.23;;;;;;;-149.78;43.82;49699.00;5076753;28;20426;-61
2021/09/07 09:02:19;;;;;;;42.15;21.67;;;;;;;-149.78;44.69;49736.13;5075183;28;20066;-62
2021/09/07 09:04:47;;;;;;;40.28;23.20;;;;;;;-149.78;46.85;49759.59;5087005;28;20032;-61
2021/09/07 09:07:24;;;;;;;32.33;20.38;;;;;;;-149.78;46.13;49704.84;5081332;28;20043;-61
2021/09/07 09:09:51;;;;;;;30.08;17.70;;;;;;;-149.78;43.79;49693.13;5094136;28;20044;-62
2021/09/07 09:12:28;;;;;;;32.75;18.20;;;;;;;-149.78;43.23;49673.56;5083256;28;20032;-61
2021/09/07 09:14:54;;;;;;;31.40;19.33;;;;;;;-149.78;43.75;49673.56;5084828;28;20038;-61
2021/09/07 09:17:31;;;;;;;32.55;19.55;;;;;;;-149.78;42.48;49646.19;5089554;28;20074;-61
2021/09/07 09:19:58;;;;;;;35.60;21.23;;;;;;;-149.78;42.61;49657.94;5092529;28;20123;-61
2021/09/07 09:22:45;;;;;;;35.75;20.15;;;;;;;-149.78;41.29;49663.78;5087582;28;20056;-61
2021/09/07 09:25:20;;;;;;;31.65;19.77;;;;;;;-149.78;42.35;49677.47;5083374;28;20047;-62
2021/09/07 09:27:55;;;;;;;32.35;19.83;;;;;;;-149.78;41.57;49634.47;5078841;28;20075;-62
2021/09/07 09:30:51;;;;;;;31.25;18.92;;;;;;;-149.78;42.17;49630.56;5075233;28;20063;-62
2021/09/07 09:33:24;;;;;;;28.88;17.95;;;;;;;-149.78;41.60;49654.00;5077088;28;20412;-61
2021/09/07 09:35:57;;;;;;;25.08;16.10;;;;;;;-149.78;41.27;49638.38;5078290;28;20103;-62
2021/09/07 09:38:26;;;;;;;23.00;15.15;;;;;;;-149.78;40.14;49599.25;5089917;28;20036;-61
2021/09/07 09:41:00;;;;;;;27.33;17.67;;;;;;;-149.78;39.68;49636.41;5089394;28;20028;-61
2021/09/07 09:43:38;;;;;;;30.25;18.27;;;;;;;-149.78;39.33;49595.34;5084720;28;20127;-61
2021/09/07 09:46:21;;;;;;;34.72;18.23;;;;;;;-149.78;39.62;49607.09;5084772;28;20024;-61
2021/09/07 09:48:47;;;;;;;24.98;16.80;;;;;;;-149.78;39.04;49622.72;5083148;28;20082;-61
2021/09/07 09:51:18;;;;;;;27.15;16.60;;;;;;;-149.78;39.39;49599.25;5075638;28;20044;-62
2021/09/07 09:53:46;;;;;;;29.42;18.58;;;;;;;-149.78;39.33;49611.00;5090113;28;20036;-61
2021/09/07 09:56:12;;;;;;;29.85;19.05;;;;;;;-149.78;39.01;49603.19;5086365;28;20398;-61
2021/09/07 09:58:39;;;;;;;29.77;19.02;;;;;;;-149.78;38.62;49571.88;5081016;28;20036;-62
2021/09/07 10:01:05;;;;;;;27.75;17.67;;;;;;;-149.78;38.12;49571.88;5083555;28;20475;-62
2021/09/07 10:03:33;;;;;;;27.75;16.85;;;;;;;-149.78;38.25;49583.63;5089002;28;20088;-61
2021/09/07 10:05:59;;;;;;;23.25;15.30;;;;;;;-149.78;37.99;49597.31;5080732;28;20028;-61
2021/09/07 10:08:25;;;;;;;24.90;15.55;;;;;;;-149.78;38.37;49558.19;5091204;28;20033;-61
2021/09/07 10:10:57;;;;;;;24.83;15.77;;;;;;;-149.78;37.68;49554.28;5082128;28;20119;-62
2021/09/07 10:13:26;;;;;;;28.40;17.92;;;;;;;-149.78;37.77;49577.75;5075523;28;20755;-61
2021/09/07 10:16:08;;;;;;;30.13;17.30;;;;;;;-149.78;38.25;49548.44;5085783;28;20431;-62
2021/09/07 10:24:03;;;;;;;28.35;15.57;;;;;;;-149.78;38.66;49548.44;5089952;28;20028;-61
2021/09/07 10:26:38;;;;;;;22.75;14.73;;;;;;;-149.78;38.03;49560.16;5070287;28;20505;-61
2021/09/07 10:29:15;;;;;;;22.00;14.82;;;;;;;-149.78;38.45;49571.88;5079753;28;20042;-61
2021/09/07 10:31:49;;;;;;;25.48;15.68;;;;;;;-149.78;39.51;49595.34;5081540;28;20029;-61
2021/09/07 10:34:16;;;;;;;22.17;15.32;;;;;;;-149.78;39.75;49612.94;5070009;28;20041;-61
2021/09/07 10:37:06;;;;;;;22.20;14.07;;;;;;;-149.78;39.56;49599.25;5089402;28;20357;-61
2021/09/07 10:39:37;;;;;;;25.05;16.05;;;;;;;-149.78;38.96;49603.19;5075525;28;20036;-61
2021/09/07 10:42:06;;;;;;;24.52;15.43;;;;;;;-149.78;39.22;49583.63;5070813;28;20029;-61
2021/09/07 10:44:32;;;;;;;22.02;13.45;;;;;;;-149.78;39.16;49618.81;5076744;28;20040;-61
2021/09/07 10:47:07;;;;;;;22.30;13.70;;;;;;;-149.78;39.55;49611.00;5084591;28;20035;-61
2021/09/07 10:52:26;;;;;;;24.90;14.35;;;;;;;-149.78;40.83;49612.94;5075124;28;20024;-61
2021/09/07 10:54:52;;;;;;;21.90;14.43;;;;;;;-149.78;42.37;49677.47;5090533;28;20178;-60
2021/09/07 10:57:36;;;;;;;25.38;13.45;;;;;;;-149.78;41.76;49611.00;5087375;28;20511;-60
2021/09/07 11:00:28;;;;;;;24.75;13.45;;;;;;;-149.78;41.86;49626.63;5085654;28;20487;-60
2021/09/07 11:02:55;;;;;;;19.63;13.57;;;;;;;-149.78;42.37;49634.47;5083983;28;20039;-65